createdAt,value
2017-02-10T00:00:36.246Z,-1.19
2017-02-10T00:01:47.852Z,-1.25
2017-02-10T00:02:59.253Z,-1.16
2017-02-10T00:04:10.866Z,-1.27
2017-02-10T00:05:22.316Z,-1.28
2017-02-10T00:06:33.722Z,-1.28
2017-02-10T00:07:45.116Z,-1.25
2017-02-10T00:08:56.528Z,-1.27
2017-02-10T00:10:07.926Z,-1.19
2017-02-10T00:11:19.533Z,-1.13
2017-02-10T00:12:30.942Z,-1.19
2017-02-10T00:13:42.332Z,-1.34
2017-02-10T00:14:53.940Z,-1.27
2017-02-10T00:16:05.398Z,-1.24
2017-02-10T00:17:16.795Z,-1.31
2017-02-10T00:18:28.183Z,-1.24
2017-02-10T00:19:39.581Z,-1.27
2017-02-10T00:20:50.983Z,-1.25
2017-02-10T00:22:02.430Z,-1.3
2017-02-10T00:23:13.835Z,-1.25
2017-02-10T00:24:25.234Z,-1.27
2017-02-10T00:25:36.630Z,-1.24
2017-02-10T00:26:48.027Z,-1.27
2017-02-10T00:27:59.631Z,-1.28
2017-02-10T00:29:11.033Z,-1.3
2017-02-10T00:30:22.425Z,-1.3
2017-02-10T00:31:33.830Z,-1.25
2017-02-10T00:32:45.277Z,-1.25
2017-02-10T00:33:56.875Z,-1.24
2017-02-10T00:35:08.272Z,-1.17
2017-02-10T00:36:19.678Z,-1.24
2017-02-10T00:37:31.081Z,-1.16
2017-02-10T00:38:42.487Z,-1.22
2017-02-10T00:39:53.892Z,-1.09
2017-02-10T00:41:05.285Z,-1.09
2017-02-10T00:42:16.888Z,-1.19
2017-02-10T00:43:28.381Z,-1.14
2017-02-10T00:44:39.781Z,-1.11
2017-02-10T00:45:51.181Z,-1.16
2017-02-10T00:47:02.586Z,-1.14
2017-02-10T00:48:13.984Z,-1.21
2017-02-10T00:49:25.388Z,-1.1
2017-02-10T00:50:36.988Z,-1.13
2017-02-10T00:51:48.389Z,-1.11
2017-02-10T00:52:59.991Z,-1.14
2017-02-10T00:54:11.394Z,-1.21
2017-02-10T00:55:22.997Z,-1.16
2017-02-10T00:56:34.400Z,-1.13
2017-02-10T00:57:45.800Z,-1.13
2017-02-10T00:58:57.396Z,-1.24
2017-02-10T01:00:08.848Z,-1.04
2017-02-10T01:01:20.251Z,-1.16
2017-02-10T01:02:31.658Z,-1.14
2017-02-10T01:03:43.090Z,-1.14
2017-02-10T01:04:54.495Z,-1.16
2017-02-10T01:06:05.887Z,-1.16
2017-02-10T01:07:17.284Z,-1.16
2017-02-10T01:08:28.891Z,-1.09
2017-02-10T01:09:40.294Z,-1.14
2017-02-10T01:10:51.743Z,-1.17
2017-02-10T01:12:03.351Z,-1.11
2017-02-10T01:13:14.956Z,-1.13
2017-02-10T01:14:26.562Z,-1.11
2017-02-10T01:15:37.961Z,-1.14
2017-02-10T01:16:49.367Z,-1.07
2017-02-10T01:18:00.766Z,-1.11
2017-02-10T01:19:12.174Z,-1.11
2017-02-10T01:20:23.570Z,-1.16
2017-02-10T01:21:35.073Z,-1.17
2017-02-10T01:22:46.469Z,-1.16
2017-02-10T01:23:57.873Z,-1.19
2017-02-10T01:25:09.479Z,-1.28
2017-02-10T01:26:20.881Z,-1.17
2017-02-10T01:27:32.278Z,-1.14
2017-02-10T01:28:43.677Z,-1.16
2017-02-10T01:29:55.083Z,-1.22
2017-02-10T01:31:06.688Z,-1.09
2017-02-10T01:32:18.145Z,-1.04
2017-02-10T01:33:29.752Z,-1.13
2017-02-10T01:34:41.149Z,-1.16
2017-02-10T01:35:52.541Z,-1.17
2017-02-10T01:37:03.942Z,-1.16
2017-02-10T01:38:15.638Z,-1.19
2017-02-10T01:39:27.027Z,-1.17
2017-02-10T01:40:38.656Z,-1.16
2017-02-10T01:41:50.062Z,-1.19
2017-02-10T01:43:01.468Z,-1.16
2017-02-10T01:44:12.867Z,-1.16
2017-02-10T01:45:24.466Z,-1.21
2017-02-10T01:46:35.875Z,-1.21
2017-02-10T01:47:47.477Z,-1.22
2017-02-10T01:48:58.935Z,-1.14
2017-02-10T01:50:10.324Z,-1.19
2017-02-10T01:51:21.724Z,-1.22
2017-02-10T01:52:33.131Z,-1.17
2017-02-10T01:53:44.737Z,-1.14
2017-02-10T01:54:56.140Z,-1.17
2017-02-10T01:56:07.550Z,-1.19
2017-02-10T01:57:19.156Z,-1.19
2017-02-10T01:58:30.775Z,-1.14
2017-02-10T01:59:42.428Z,-1.13
2017-02-10T02:00:53.829Z,-1.27
2017-02-10T02:02:05.228Z,-1.17
2017-02-10T02:03:16.632Z,-1.19
2017-02-10T02:04:28.230Z,-1.11
2017-02-10T02:05:39.631Z,-1.17
2017-02-10T02:06:51.242Z,-1.17
2017-02-10T02:08:02.846Z,-1.13
2017-02-10T02:09:14.242Z,-1.16
2017-02-10T02:10:25.950Z,-1.19
2017-02-10T02:11:37.347Z,-1.16
2017-02-10T02:12:48.954Z,-1.22
2017-02-10T02:14:00.347Z,-1.27
2017-02-10T02:15:11.750Z,-1.19
2017-02-10T02:16:23.205Z,-1.21
2017-02-10T02:17:34.605Z,-1.21
2017-02-10T02:18:46.008Z,-1.21
2017-02-10T02:19:57.411Z,-1.16
2017-02-10T02:21:08.814Z,-1.17
2017-02-10T02:22:20.260Z,-1.13
2017-02-10T02:23:31.863Z,-1.1
2017-02-10T02:24:43.269Z,-1.13
2017-02-10T02:25:54.865Z,-1.09
2017-02-10T02:27:06.266Z,-1.17
2017-02-10T02:28:17.860Z,-1.19
2017-02-10T02:29:29.265Z,-1.09
2017-02-10T02:30:40.667Z,-1.11
2017-02-10T02:31:52.072Z,-1.09
2017-02-10T02:33:03.518Z,-1.13
2017-02-10T02:34:14.914Z,-1.09
2017-02-10T02:35:26.525Z,-1.03
2017-02-10T02:36:37.927Z,-1.03
2017-02-10T02:37:49.328Z,-0.96
2017-02-10T02:39:00.762Z,-1.07
2017-02-10T02:40:12.374Z,-1.04
2017-02-10T02:41:23.985Z,-1.17
2017-02-10T02:42:35.385Z,-1.17
2017-02-10T02:43:47.094Z,-1.17
2017-02-10T02:44:58.701Z,-1.13
2017-02-10T02:46:10.112Z,-1.17
2017-02-10T02:47:21.713Z,-1.21
2017-02-10T02:48:33.308Z,-1.16
2017-02-10T02:49:44.763Z,-1.09
2017-02-10T02:50:56.148Z,-1.16
2017-02-10T02:52:07.547Z,-1.17
2017-02-10T02:53:18.961Z,-1.06
2017-02-10T02:54:30.362Z,-1.09
2017-02-10T02:55:41.805Z,-1.06
2017-02-10T02:56:53.198Z,-1.14
2017-02-10T02:58:04.598Z,-1.16
2017-02-10T02:59:15.995Z,-1.11
2017-02-10T03:00:27.424Z,-1.11
2017-02-10T03:01:38.815Z,-1.17
2017-02-10T03:02:50.418Z,-1.11
2017-02-10T03:04:01.823Z,-1.17
2017-02-10T03:05:13.278Z,-1.16
2017-02-10T03:06:24.889Z,-1.19
2017-02-10T03:07:36.285Z,-1.14
2017-02-10T03:08:47.686Z,-1.17
2017-02-10T03:09:59.083Z,-1.19
2017-02-10T03:11:10.489Z,-1.25
2017-02-10T03:12:21.883Z,-1.21
2017-02-10T03:13:33.287Z,-1.16
2017-02-10T03:14:44.697Z,-1.17
2017-02-10T03:15:56.195Z,-1.13
2017-02-10T03:17:07.604Z,-1.19
2017-02-10T03:18:19.217Z,-1.19
2017-02-10T03:19:30.616Z,-1.19
2017-02-10T03:20:42.015Z,-1.21
2017-02-10T03:21:53.408Z,-1.19
2017-02-10T03:23:04.804Z,-1.25
2017-02-10T03:24:16.202Z,-1.14
2017-02-10T03:25:27.601Z,-1.22
2017-02-10T03:26:39.041Z,-1.17
2017-02-10T03:27:50.446Z,-1.17
2017-02-10T03:29:01.850Z,-1.19
2017-02-10T03:30:13.250Z,-1.25
2017-02-10T03:31:24.653Z,-1.28
2017-02-10T03:32:36.052Z,-1.25
2017-02-10T03:33:47.444Z,-1.28
2017-02-10T03:34:58.880Z,-1.31
2017-02-10T03:36:10.482Z,-1.28
2017-02-10T03:37:21.935Z,-1.19
2017-02-10T03:38:33.542Z,-1.28
2017-02-10T03:39:44.937Z,-1.28
2017-02-10T03:40:56.535Z,-1.27
2017-02-10T03:42:07.934Z,-1.17
2017-02-10T03:43:19.364Z,-1.16
2017-02-10T03:44:30.776Z,-1.17
2017-02-10T03:45:42.167Z,-1.25
2017-02-10T03:46:53.561Z,-1.11
2017-02-10T03:48:05.005Z,-1.1
2017-02-10T03:49:16.411Z,-1.11
2017-02-10T03:50:27.811Z,-1.11
2017-02-10T03:51:39.609Z,-1.14
2017-02-10T03:52:51.015Z,-1.16
2017-02-10T03:54:02.420Z,-1.27
2017-02-10T03:55:13.819Z,-1.3
2017-02-10T03:56:25.427Z,-1.3
2017-02-10T03:57:37.016Z,-1.28
2017-02-10T03:58:48.516Z,-1.24
2017-02-10T03:59:59.916Z,-1.16
2017-02-10T04:01:11.313Z,-1.17
2017-02-10T04:02:22.712Z,-1.16
2017-02-10T04:03:34.113Z,-1.17
2017-02-10T04:04:45.521Z,-1.21
2017-02-10T04:05:56.923Z,-1.1
2017-02-10T04:07:08.325Z,-1.16
2017-02-10T04:08:19.752Z,-1.21
2017-02-10T04:09:31.198Z,-1.24
2017-02-10T04:10:42.591Z,-1.28
2017-02-10T04:11:53.995Z,-1.24
2017-02-10T04:13:05.599Z,-1.19
2017-02-10T04:14:17.009Z,-1.3
2017-02-10T04:15:28.600Z,-1.17
2017-02-10T04:16:40.204Z,-1.28
2017-02-10T04:17:51.611Z,-1.27
2017-02-10T04:19:03.014Z,-1.19
2017-02-10T04:20:14.664Z,-1.17
2017-02-10T04:21:26.057Z,-1.27
2017-02-10T04:22:37.654Z,-1.25
2017-02-10T04:23:49.255Z,-1.32
2017-02-10T04:25:00.858Z,-1.32
2017-02-10T04:26:12.457Z,-1.32
2017-02-10T04:27:23.857Z,-1.27
2017-02-10T04:28:35.265Z,-1.32
2017-02-10T04:29:46.664Z,-1.3
2017-02-10T04:30:58.062Z,-1.27
2017-02-10T04:32:09.467Z,-1.32
2017-02-10T04:33:20.876Z,-1.25
2017-02-10T04:34:32.479Z,-1.25
2017-02-10T04:35:43.891Z,-1.28
2017-02-10T04:36:55.339Z,-1.28
2017-02-10T04:38:06.736Z,-1.21
2017-02-10T04:39:18.129Z,-1.22
2017-02-10T04:40:29.534Z,-1.3
2017-02-10T04:41:40.933Z,-1.27
2017-02-10T04:42:52.334Z,-1.32
2017-02-10T04:44:03.937Z,-1.35
2017-02-10T04:45:15.338Z,-1.25
2017-02-10T04:46:26.938Z,-1.28
2017-02-10T04:47:38.595Z,-1.27
2017-02-10T04:48:49.990Z,-1.27
2017-02-10T04:50:01.384Z,-1.31
2017-02-10T04:51:12.781Z,-1.25
2017-02-10T04:52:24.198Z,-1.25
2017-02-10T04:53:35.596Z,-1.21
2017-02-10T04:54:47.001Z,-1.16
2017-02-10T04:55:58.412Z,-1.17
2017-02-10T04:57:10.018Z,-1.21
2017-02-10T04:58:21.668Z,-1.25
2017-02-10T04:59:33.073Z,-1.35
2017-02-10T05:00:44.470Z,-1.31
2017-02-10T05:01:55.881Z,-1.3
2017-02-10T05:03:07.471Z,-1.21
2017-02-10T05:04:18.870Z,-1.28
2017-02-10T05:05:30.270Z,-1.28
2017-02-10T05:06:41.678Z,-1.32
2017-02-10T05:07:53.084Z,-1.31
2017-02-10T05:09:04.542Z,-1.32
2017-02-10T05:10:15.953Z,-1.34
2017-02-10T05:11:27.362Z,-1.27
2017-02-10T05:12:38.967Z,-1.31
2017-02-10T05:13:50.369Z,-1.21
2017-02-10T05:15:02.029Z,-1.28
2017-02-10T05:16:13.625Z,-1.31
2017-02-10T05:17:25.046Z,-1.28
2017-02-10T05:18:36.639Z,-1.3
2017-02-10T05:19:48.246Z,-1.37
2017-02-10T05:20:59.653Z,-1.37
2017-02-10T05:22:11.064Z,-1.32
2017-02-10T05:23:22.465Z,-1.32
2017-02-10T05:24:33.875Z,-1.28
2017-02-10T05:25:45.371Z,-1.25
2017-02-10T05:26:56.767Z,-1.38
2017-02-10T05:28:08.178Z,-1.34
2017-02-10T05:29:19.779Z,-1.25
2017-02-10T05:30:31.188Z,-1.34
2017-02-10T05:31:42.987Z,-1.31
2017-02-10T05:32:54.603Z,-1.3
2017-02-10T05:34:06.000Z,-1.38
2017-02-10T05:35:17.408Z,-1.32
2017-02-10T05:36:28.857Z,-1.31
2017-02-10T05:37:40.259Z,-1.34
2017-02-10T05:38:51.662Z,-1.35
2017-02-10T05:40:03.064Z,-1.3
2017-02-10T05:41:14.471Z,-1.27
2017-02-10T05:42:26.071Z,-1.31
2017-02-10T05:43:37.479Z,-1.34
2017-02-10T05:44:48.885Z,-1.28
2017-02-10T05:46:00.282Z,-1.32
2017-02-10T05:47:11.775Z,-1.35
2017-02-10T05:48:23.180Z,-1.35
2017-02-10T05:49:34.576Z,-1.31
2017-02-10T05:50:45.973Z,-1.31
2017-02-10T05:51:57.381Z,-1.31
2017-02-10T05:53:08.770Z,-1.35
2017-02-10T05:54:20.167Z,-1.31
2017-02-10T05:55:31.767Z,-1.31
2017-02-10T05:56:43.160Z,-1.28
2017-02-10T05:57:54.656Z,-1.3
2017-02-10T05:59:06.060Z,-1.3
2017-02-10T06:00:17.662Z,-1.21
2017-02-10T06:01:29.065Z,-1.3
2017-02-10T06:02:40.469Z,-1.31
2017-02-10T06:03:51.923Z,-1.25
2017-02-10T06:05:03.325Z,-1.31
2017-02-10T06:06:14.727Z,-1.35
2017-02-10T06:07:26.128Z,-1.28
2017-02-10T06:08:37.536Z,-1.31
2017-02-10T06:09:48.939Z,-1.24
2017-02-10T06:11:00.348Z,-1.24
2017-02-10T06:12:11.751Z,-1.25
2017-02-10T06:13:23.147Z,-1.3
2017-02-10T06:14:34.552Z,-1.3
2017-02-10T06:15:45.999Z,-1.3
2017-02-10T06:16:57.392Z,-1.3
2017-02-10T06:18:08.797Z,-1.24
2017-02-10T06:19:20.192Z,-1.27
2017-02-10T06:20:31.585Z,-1.21
2017-02-10T06:21:43.187Z,-1.25
2017-02-10T06:22:54.993Z,-1.24
2017-02-10T06:24:06.394Z,-1.31
2017-02-10T06:25:17.851Z,-1.3
2017-02-10T06:26:29.247Z,-1.22
2017-02-10T06:27:40.646Z,-1.35
2017-02-10T06:28:52.046Z,-1.31
2017-02-10T06:30:03.450Z,-1.28
2017-02-10T06:31:14.857Z,-1.25
2017-02-10T06:32:26.258Z,-1.32
2017-02-10T06:33:37.653Z,-1.35
2017-02-10T06:34:49.302Z,-1.21
2017-02-10T06:36:00.747Z,-1.31
2017-02-10T06:37:12.145Z,-1.3
2017-02-10T06:38:23.545Z,-1.17
2017-02-10T06:39:35.554Z,-1.25
2017-02-10T06:40:46.961Z,-1.28
2017-02-10T06:41:58.368Z,-1.27
2017-02-10T06:43:09.769Z,-1.3
2017-02-10T06:44:21.169Z,-1.19
2017-02-10T06:45:32.576Z,-1.17
2017-02-10T06:46:44.071Z,-1.32
2017-02-10T06:47:55.675Z,-1.24
2017-02-10T06:49:07.280Z,-1.22
2017-02-10T06:50:18.682Z,-1.19
2017-02-10T06:51:30.286Z,-1.17
2017-02-10T06:52:41.682Z,-1.17
2017-02-10T06:53:53.074Z,-1.14
2017-02-10T06:55:04.472Z,-1.22
2017-02-10T06:56:15.871Z,-1.09
2017-02-10T06:57:27.281Z,-1.16
2017-02-10T06:58:38.692Z,-1.07
2017-02-10T06:59:50.092Z,-1.03
2017-02-10T07:01:01.495Z,-1.1
2017-02-10T07:02:13.099Z,-1.11
2017-02-10T07:03:24.500Z,-1.13
2017-02-10T07:04:35.897Z,-1.14
2017-02-10T07:05:47.297Z,-1.21
2017-02-10T07:06:58.698Z,-1.1
2017-02-10T07:08:10.158Z,-1.11
2017-02-10T07:09:21.554Z,-1.11
2017-02-10T07:10:32.960Z,-1.04
2017-02-10T07:11:44.567Z,-1.09
2017-02-10T07:12:55.969Z,-1.03
2017-02-10T07:14:07.368Z,-1.11
2017-02-10T07:15:18.776Z,-1.01
2017-02-10T07:16:30.379Z,-1.03
2017-02-10T07:17:41.789Z,-0.95
2017-02-10T07:18:53.568Z,-0.95
2017-02-10T07:20:05.168Z,-0.99
2017-02-10T07:21:16.568Z,-0.95
2017-02-10T07:22:27.970Z,-0.95
2017-02-10T07:23:39.367Z,-0.92
2017-02-10T07:24:50.772Z,-0.91
2017-02-10T07:26:02.172Z,-1.01
2017-02-10T07:27:13.571Z,-0.91
2017-02-10T07:28:24.964Z,-0.98
2017-02-10T07:29:36.666Z,-1.01
2017-02-10T07:30:48.268Z,-0.98
2017-02-10T07:31:59.669Z,-0.99
2017-02-10T07:33:11.078Z,-0.87
2017-02-10T07:34:22.472Z,-0.91
2017-02-10T07:35:34.080Z,-0.92
2017-02-10T07:36:45.480Z,-0.96
2017-02-10T07:37:56.884Z,-0.99
2017-02-10T07:39:08.285Z,-0.99
2017-02-10T07:40:19.937Z,-0.96
2017-02-10T07:41:31.538Z,-1.03
2017-02-10T07:42:43.138Z,-0.95
2017-02-10T07:43:54.543Z,-0.91
2017-02-10T07:45:06.151Z,-1.01
2017-02-10T07:46:17.551Z,-0.89
2017-02-10T07:47:28.945Z,-0.89
2017-02-10T07:48:40.543Z,-0.8
2017-02-10T07:49:51.941Z,-0.87
2017-02-10T07:51:03.342Z,-0.87
2017-02-10T07:52:14.739Z,-0.87
2017-02-10T07:53:26.329Z,-0.93
2017-02-10T07:54:37.730Z,-0.84
2017-02-10T07:55:49.133Z,-0.91
2017-02-10T07:57:00.575Z,-0.91
2017-02-10T07:58:11.981Z,-0.91
2017-02-10T07:59:23.383Z,-0.85
2017-02-10T08:00:34.989Z,-0.84
2017-02-10T08:01:46.600Z,-0.95
2017-02-10T08:02:58.004Z,-0.89
2017-02-10T08:04:09.444Z,-0.85
2017-02-10T08:05:20.850Z,-0.82
2017-02-10T08:06:32.255Z,-0.85
2017-02-10T08:07:43.714Z,-0.79
2017-02-10T08:08:55.147Z,-0.73
2017-02-10T08:10:06.551Z,-0.67
2017-02-10T08:11:17.953Z,-0.67
2017-02-10T08:12:29.365Z,-0.73
2017-02-10T08:13:40.765Z,-0.72
2017-02-10T08:14:52.573Z,-0.64
2017-02-10T08:16:04.374Z,-0.77
2017-02-10T08:17:15.771Z,-0.72
2017-02-10T08:18:27.236Z,-0.7
2017-02-10T08:19:38.833Z,-0.64
2017-02-10T08:20:50.243Z,-0.66
2017-02-10T08:22:01.642Z,-0.69
2017-02-10T08:23:13.042Z,-0.67
2017-02-10T08:24:24.441Z,-0.69
2017-02-10T08:25:35.839Z,-0.64
2017-02-10T08:26:47.242Z,-0.58
2017-02-10T08:27:58.655Z,-0.55
2017-02-10T08:29:10.112Z,-0.58
2017-02-10T08:30:21.514Z,-0.64
2017-02-10T08:31:32.926Z,-0.59
2017-02-10T08:32:44.335Z,-0.64
2017-02-10T08:33:55.740Z,-0.61
2017-02-10T08:35:07.342Z,-0.56
2017-02-10T08:36:18.739Z,-0.64
2017-02-10T08:37:30.144Z,-0.67
2017-02-10T08:38:41.543Z,-0.59
2017-02-10T08:39:52.956Z,-0.55
2017-02-10T08:41:04.404Z,-0.67
2017-02-10T08:42:15.814Z,-0.56
2017-02-10T08:43:27.215Z,-0.56
2017-02-10T08:44:38.622Z,-0.55
2017-02-10T08:45:50.029Z,-0.54
2017-02-10T08:47:01.437Z,-0.58
2017-02-10T08:48:12.833Z,-0.61
2017-02-10T08:49:24.237Z,-0.66
2017-02-10T08:50:35.946Z,-0.69
2017-02-10T08:51:47.551Z,-0.69
2017-02-10T08:52:59.156Z,-0.61
2017-02-10T08:54:10.561Z,-0.51
2017-02-10T08:55:22.191Z,-0.58
2017-02-10T08:56:33.660Z,-0.59
2017-02-10T08:57:45.055Z,-0.66
2017-02-10T08:58:56.458Z,-0.62
2017-02-10T09:00:07.866Z,-0.59
2017-02-10T09:01:19.525Z,-0.69
2017-02-10T09:02:31.125Z,-0.59
2017-02-10T09:03:42.524Z,-0.56
2017-02-10T09:04:53.928Z,-0.48
2017-02-10T09:06:05.329Z,-0.54
2017-02-10T09:07:16.754Z,-0.69
2017-02-10T09:08:28.353Z,-0.7
2017-02-10T09:09:39.788Z,-0.66
2017-02-10T09:10:51.397Z,-0.64
2017-02-10T09:12:02.844Z,-0.55
2017-02-10T09:13:14.249Z,-0.55
2017-02-10T09:14:25.654Z,-0.41
2017-02-10T09:15:37.257Z,-0.41
2017-02-10T09:16:49.055Z,-0.46
2017-02-10T09:18:00.489Z,-0.37
2017-02-10T09:19:11.898Z,-0.4
2017-02-10T09:20:23.499Z,-0.41
2017-02-10T09:21:34.895Z,-0.38
2017-02-10T09:22:46.304Z,-0.43
2017-02-10T09:23:57.715Z,-0.52
2017-02-10T09:25:09.323Z,-0.51
2017-02-10T09:26:20.723Z,-0.52
2017-02-10T09:27:32.120Z,-0.56
2017-02-10T09:28:43.628Z,-0.67
2017-02-10T09:29:55.036Z,-0.56
2017-02-10T09:31:06.449Z,-0.54
2017-02-10T09:32:18.050Z,-0.61
2017-02-10T09:33:29.448Z,-0.64
2017-02-10T09:34:40.841Z,-0.58
2017-02-10T09:35:52.241Z,-0.56
2017-02-10T09:37:03.654Z,-0.58
2017-02-10T09:38:15.052Z,-0.61
2017-02-10T09:39:26.506Z,-0.55
2017-02-10T09:40:37.907Z,-0.58
2017-02-10T09:41:49.313Z,-0.55
2017-02-10T09:43:00.731Z,-0.55
2017-02-10T09:44:12.137Z,-0.58
2017-02-10T09:45:23.537Z,-0.55
2017-02-10T09:46:34.940Z,-0.45
2017-02-10T09:47:46.367Z,-0.4
2017-02-10T09:48:57.976Z,-0.54
2017-02-10T09:50:09.420Z,-0.49
2017-02-10T09:51:20.815Z,-0.48
2017-02-10T09:52:32.217Z,-0.38
2017-02-10T09:53:43.614Z,-0.41
2017-02-10T09:54:55.222Z,-0.46
2017-02-10T09:56:06.619Z,-0.4
2017-02-10T09:57:18.020Z,-0.46
2017-02-10T09:58:29.427Z,-0.41
2017-02-10T09:59:40.832Z,-0.38
2017-02-10T10:00:52.281Z,-0.37
2017-02-10T10:02:03.887Z,-0.51
2017-02-10T10:03:15.295Z,-0.43
2017-02-10T10:04:26.903Z,-0.4
2017-02-10T10:05:38.303Z,-0.37
2017-02-10T10:06:49.702Z,-0.37
2017-02-10T10:08:01.300Z,-0.46
2017-02-10T10:09:12.703Z,-0.45
2017-02-10T10:10:24.109Z,-0.38
2017-02-10T10:11:35.713Z,-0.43
2017-02-10T10:12:47.111Z,-0.45
2017-02-10T10:13:58.504Z,-0.41
2017-02-10T10:15:09.911Z,-0.4
2017-02-10T10:16:21.303Z,-0.38
2017-02-10T10:17:32.805Z,-0.36
2017-02-10T10:18:44.407Z,-0.37
2017-02-10T10:19:55.815Z,-0.3
2017-02-10T10:21:07.217Z,-0.3
2017-02-10T10:22:18.622Z,-0.31
2017-02-10T10:23:30.219Z,-0.27
2017-02-10T10:24:41.627Z,-0.31
2017-02-10T10:25:53.037Z,-0.43
2017-02-10T10:27:04.452Z,-0.43
2017-02-10T10:28:15.954Z,-0.45
2017-02-10T10:29:27.353Z,-0.46
2017-02-10T10:30:38.759Z,-0.48
2017-02-10T10:31:50.189Z,-0.46
2017-02-10T10:33:01.587Z,-0.54
2017-02-10T10:34:13.184Z,-0.61
2017-02-10T10:35:24.590Z,-0.69
2017-02-10T10:36:35.987Z,-0.73
2017-02-10T10:37:47.590Z,-0.58
2017-02-10T10:38:59.053Z,-0.64
2017-02-10T10:40:10.463Z,-0.72
2017-02-10T10:41:21.871Z,-0.66
2017-02-10T10:42:33.669Z,-0.59
2017-02-10T10:43:45.273Z,-0.61
2017-02-10T10:44:56.677Z,-0.62
2017-02-10T10:46:08.091Z,-0.62
2017-02-10T10:47:19.492Z,-0.64
2017-02-10T10:48:30.895Z,-0.61
2017-02-10T10:49:42.347Z,-0.56
2017-02-10T10:50:53.749Z,-0.45
2017-02-10T10:52:05.149Z,-0.46
2017-02-10T10:53:16.547Z,-0.38
2017-02-10T10:54:27.946Z,-0.38
2017-02-10T10:55:39.347Z,-0.38
2017-02-10T10:56:50.749Z,-0.34
2017-02-10T10:58:02.352Z,-0.46
2017-02-10T10:59:13.966Z,-0.51
2017-02-10T11:00:25.358Z,-0.61
2017-02-10T11:01:36.759Z,-0.61
2017-02-10T11:02:48.172Z,-0.67
2017-02-10T11:03:59.572Z,-0.77
2017-02-10T11:05:10.984Z,-0.64
2017-02-10T11:06:22.432Z,-0.67
2017-02-10T11:07:33.828Z,-0.73
2017-02-10T11:08:45.243Z,-0.64
2017-02-10T11:09:56.643Z,-0.69
2017-02-10T11:11:08.053Z,-0.56
2017-02-10T11:12:19.453Z,-0.67
2017-02-10T11:13:30.850Z,-0.56
2017-02-10T11:14:42.249Z,-0.64
2017-02-10T11:15:53.667Z,-0.58
2017-02-10T11:17:05.120Z,-0.54
2017-02-10T11:18:16.528Z,-0.61
2017-02-10T11:19:27.931Z,-0.56
2017-02-10T11:20:39.336Z,-0.51
2017-02-10T11:21:50.739Z,-0.55
2017-02-10T11:23:02.386Z,-0.59
2017-02-10T11:24:13.789Z,-0.55
2017-02-10T11:25:25.187Z,-0.56
2017-02-10T11:26:36.598Z,-0.4
2017-02-10T11:27:48.057Z,-0.43
2017-02-10T11:28:59.464Z,-0.48
2017-02-10T11:30:10.874Z,-0.52
2017-02-10T11:31:22.271Z,-0.51
2017-02-10T11:32:33.673Z,-0.49
2017-02-10T11:33:45.076Z,-0.46
2017-02-10T11:34:56.482Z,-0.41
2017-02-10T11:36:07.886Z,-0.46
2017-02-10T11:37:19.293Z,-0.37
2017-02-10T11:38:30.738Z,-0.43
2017-02-10T11:39:42.144Z,-0.43
2017-02-10T11:40:53.548Z,-0.46
2017-02-10T11:42:04.953Z,-0.38
2017-02-10T11:43:16.390Z,-0.48
2017-02-10T11:44:27.789Z,-0.4
2017-02-10T11:45:39.190Z,-0.36
2017-02-10T11:46:50.593Z,-0.25
2017-02-10T11:48:01.986Z,-0.37
2017-02-10T11:49:13.396Z,-0.37
2017-02-10T11:50:24.848Z,-0.45
2017-02-10T11:51:36.256Z,-0.4
2017-02-10T11:52:47.657Z,-0.45
2017-02-10T11:53:59.257Z,-0.36
2017-02-10T11:55:10.708Z,-0.37
2017-02-10T11:56:22.103Z,-0.4
2017-02-10T11:57:33.513Z,-0.41
2017-02-10T11:58:44.915Z,-0.38
2017-02-10T11:59:56.368Z,-0.45
2017-02-10T12:01:07.768Z,-0.48
2017-02-10T12:02:19.179Z,-0.54
2017-02-10T12:03:30.586Z,-0.55
2017-02-10T12:04:41.991Z,-0.54
2017-02-10T12:05:53.443Z,-0.52
2017-02-10T12:07:04.849Z,-0.52
2017-02-10T12:08:16.247Z,-0.45
2017-02-10T12:09:27.652Z,-0.37
2017-02-10T12:10:39.112Z,-0.46
2017-02-10T12:11:50.716Z,-0.48
2017-02-10T12:13:02.115Z,-0.45
2017-02-10T12:14:13.517Z,-0.48
2017-02-10T12:15:25.125Z,-0.46
2017-02-10T12:16:36.519Z,-0.41
2017-02-10T12:17:47.930Z,-0.41
2017-02-10T12:18:59.329Z,-0.45
2017-02-10T12:20:10.739Z,-0.41
2017-02-10T12:21:22.190Z,-0.41
2017-02-10T12:22:33.599Z,-0.37
2017-02-10T12:23:44.996Z,-0.4
2017-02-10T12:24:56.426Z,-0.34
2017-02-10T12:26:07.832Z,-0.38
2017-02-10T12:27:19.437Z,-0.37
2017-02-10T12:28:30.842Z,-0.33
2017-02-10T12:29:42.238Z,-0.33
2017-02-10T12:30:53.651Z,-0.4
2017-02-10T12:32:05.059Z,-0.38
2017-02-10T12:33:16.458Z,-0.45
2017-02-10T12:34:27.858Z,-0.4
2017-02-10T12:35:39.266Z,-0.37
2017-02-10T12:36:50.677Z,-0.45
2017-02-10T12:38:02.135Z,-0.4
2017-02-10T12:39:13.937Z,-0.46
2017-02-10T12:40:25.535Z,-0.43
2017-02-10T12:41:36.938Z,-0.43
2017-02-10T12:42:48.549Z,-0.38
2017-02-10T12:43:59.952Z,-0.41
2017-02-10T12:45:11.359Z,-0.49
2017-02-10T12:46:22.766Z,-0.4
2017-02-10T12:47:34.221Z,-0.45
2017-02-10T12:48:45.631Z,-0.45
2017-02-10T12:49:57.029Z,-0.49
2017-02-10T12:51:08.642Z,-0.41
2017-02-10T12:52:20.037Z,-0.58
2017-02-10T12:53:31.445Z,-0.49
2017-02-10T12:54:42.856Z,-0.54
2017-02-10T12:55:54.463Z,-0.55
2017-02-10T12:57:05.869Z,-0.52
2017-02-10T12:58:17.567Z,-0.4
2017-02-10T12:59:28.969Z,-0.38
2017-02-10T13:00:40.569Z,-0.48
2017-02-10T13:01:51.971Z,-0.41
2017-02-10T13:03:03.383Z,-0.43
2017-02-10T13:04:14.820Z,-0.48
2017-02-10T13:05:26.224Z,-0.46
2017-02-10T13:06:37.621Z,-0.46
2017-02-10T13:07:49.016Z,-0.46
2017-02-10T13:09:00.678Z,-0.43
2017-02-10T13:10:12.079Z,-0.43
2017-02-10T13:11:23.490Z,-0.36
2017-02-10T13:12:34.894Z,-0.38
2017-02-10T13:13:46.291Z,-0.41
2017-02-10T13:14:57.694Z,-0.4
2017-02-10T13:16:09.102Z,-0.38
2017-02-10T13:17:20.502Z,-0.3
2017-02-10T13:18:31.909Z,-0.23
2017-02-10T13:19:43.324Z,-0.28
2017-02-10T13:20:54.932Z,-0.3
2017-02-10T13:22:06.332Z,-0.27
2017-02-10T13:23:18.132Z,-0.18
2017-02-10T13:24:29.541Z,-0.22
2017-02-10T13:25:40.985Z,-0.18
2017-02-10T13:26:52.382Z,-0.28
2017-02-10T13:28:03.789Z,-0.31
2017-02-10T13:29:15.190Z,-0.28
2017-02-10T13:30:26.855Z,-0.25
2017-02-10T13:31:38.263Z,-0.27
2017-02-10T13:32:49.680Z,-0.37
2017-02-10T13:34:01.094Z,-0.3
2017-02-10T13:35:12.502Z,-0.4
2017-02-10T13:36:23.904Z,-0.36
2017-02-10T13:37:35.514Z,-0.33
2017-02-10T13:38:47.122Z,-0.27
2017-02-10T13:39:58.561Z,-0.37
2017-02-10T13:41:10.012Z,-0.27
2017-02-10T13:42:21.419Z,-0.2
2017-02-10T13:43:33.029Z,-0.28
2017-02-10T13:44:44.634Z,-0.19
2017-02-10T13:45:56.035Z,-0.16
2017-02-10T13:47:07.440Z,-0.13
2017-02-10T13:48:18.841Z,-0.1
2017-02-10T13:49:30.245Z,-0.18
2017-02-10T13:50:41.854Z,-0.18
2017-02-10T13:51:53.316Z,-0.01
2017-02-10T13:53:04.710Z,-0.12
2017-02-10T13:54:16.120Z,-0.23
2017-02-10T13:55:27.541Z,-0.18
2017-02-10T13:56:38.954Z,-0.23
2017-02-10T13:57:50.360Z,-0.13
2017-02-10T13:59:01.981Z,-0.25
2017-02-10T14:00:13.385Z,-0.19
2017-02-10T14:01:24.793Z,-0.2
2017-02-10T14:02:36.239Z,-0.19
2017-02-10T14:03:47.642Z,-0.19
2017-02-10T14:04:59.047Z,-0.2
2017-02-10T14:06:10.662Z,-0.25
2017-02-10T14:07:22.066Z,-0.19
2017-02-10T14:08:33.479Z,-0.22
2017-02-10T14:09:44.887Z,-0.2
2017-02-10T14:10:56.492Z,-0.23
2017-02-10T14:12:07.900Z,-0.22
2017-02-10T14:13:19.312Z,-0.16
2017-02-10T14:14:30.784Z,-0.09
2017-02-10T14:15:42.184Z,-0.13
2017-02-10T14:16:53.590Z,-0.1
2017-02-10T14:18:04.996Z,-0.07
2017-02-10T14:19:16.447Z,-0.15
2017-02-10T14:20:27.839Z,-0.13
2017-02-10T14:21:39.252Z,-0.18
2017-02-10T14:22:50.657Z,-0.22
2017-02-10T14:24:02.113Z,-0.16
2017-02-10T14:25:13.526Z,-0.12
2017-02-10T14:26:24.924Z,-0.05
2017-02-10T14:27:36.329Z,-0.09
2017-02-10T14:28:47.769Z,-0.07
2017-02-10T14:29:59.444Z,-0.15
2017-02-10T14:31:10.851Z,-0.09
2017-02-10T14:32:22.452Z,-0.18
2017-02-10T14:33:33.860Z,-0.13
2017-02-10T14:34:45.327Z,-0.15
2017-02-10T14:35:56.776Z,-0.18
2017-02-10T14:37:08.187Z,-0.15
2017-02-10T14:38:19.591Z,-0.13
2017-02-10T14:39:31.196Z,-0.1
2017-02-10T14:40:42.944Z,-0.09
2017-02-10T14:41:54.346Z,0.01
2017-02-10T14:43:05.943Z,0.02
2017-02-10T14:44:17.550Z,-0.05
2017-02-10T14:45:29.361Z,0.01
2017-02-10T14:46:40.776Z,0.01
2017-02-10T14:47:52.180Z,0.01
2017-02-10T14:49:03.585Z,-0.02
2017-02-10T14:50:14.999Z,-0.01
2017-02-10T14:51:26.458Z,0.01
2017-02-10T14:52:37.872Z,0.05
2017-02-10T14:53:49.289Z,-0.02
2017-02-10T14:55:00.690Z,-0.05
2017-02-10T14:56:12.098Z,-0.01
2017-02-10T14:57:23.698Z,0.05
2017-02-10T14:58:35.098Z,-0.01
2017-02-10T14:59:46.499Z,0.01
2017-02-10T15:00:57.899Z,0.03
2017-02-10T15:02:09.303Z,0.03
2017-02-10T15:03:21.052Z,0.01
2017-02-10T15:04:32.463Z,0.01
2017-02-10T15:05:43.870Z,0.06
2017-02-10T15:06:55.277Z,0.01
2017-02-10T15:08:06.729Z,-0.1
2017-02-10T15:09:18.130Z,0.01
2017-02-10T15:10:29.535Z,-0.1
2017-02-10T15:11:40.947Z,-0.1
2017-02-10T15:12:52.904Z,-0.01
2017-02-10T15:14:04.318Z,-0.13
2017-02-10T15:15:15.934Z,-0.12
2017-02-10T15:16:27.344Z,-0.09
2017-02-10T15:17:38.739Z,-0.18
2017-02-10T15:18:50.342Z,-0.15
2017-02-10T15:20:01.744Z,-0.12
2017-02-10T15:21:13.354Z,-0.15
2017-02-10T15:22:24.768Z,-0.18
2017-02-10T15:23:36.247Z,-0.25